Time,TemperatureF,DewpointF,PressureIn,WindDirection,WindDirectionDegrees,WindSpeedMPH,WindSpeedGustMPH,Humidity,HourlyPrecipIn,Conditions,Clouds,dailyrainin,SoftwareType,DateUTC
2013-03-23 01:21:00,35.0,22.0,29.78,West,270,15.0,18.0,57,-99.99,,,-99.99,,2013-03-23 05:21:00,
2013-03-23 01:32:00,35.0,22.0,29.78,West,270,17.0,22.0,58,-99.99,,,-99.99,,2013-03-23 05:32:00,
2013-03-23 01:41:00,35.0,22.0,29.78,West,270,17.0,22.0,58,-99.99,,,-99.99,,2013-03-23 05:41:00,
2013-03-23 01:51:00,35.0,22.0,29.78,West,280,16.0,21.0,59,-99.99,,,-99.99,,2013-03-23 05:51:00,
2013-03-23 02:01:00,35.0,22.0,29.78,West,280,16.0,21.0,59,-99.99,,,-99.99,,2013-03-23 06:01:00,
2013-03-23 02:11:00,35.0,23.0,29.78,West,270,16.0,20.0,60,-99.99,,,-99.99,,2013-03-23 06:11:00,
2013-03-23 02:21:00,35.0,22.0,29.78,West,280,13.0,17.0,59,-99.99,,,-99.99,,2013-03-23 06:21:00,
2013-03-23 02:31:00,34.0,22.0,29.78,West,280,11.0,15.0,59,-99.99,,,-99.99,,2013-03-23 06:31:00,
2013-03-23 02:41:00,34.0,22.0,29.78,West,280,11.0,15.0,59,-99.99,,,-99.99,,2013-03-23 06:41:00,
2013-03-23 02:51:00,34.0,22.0,29.78,WNW,290,9.0,13.0,60,-99.99,,,-99.99,,2013-03-23 06:51:00,
2013-03-23 03:02:00,34.0,22.0,29.78,WNW,290,9.0,13.0,60,-99.99,,,-99.99,,2013-03-23 07:02:00,
2013-03-23 03:21:00,34.0,22.0,29.78,West,280,8.0,11.0,62,-99.99,,,-99.99,,2013-03-23 07:21:00,
2013-03-23 03:32:00,34.0,23.0,29.78,West,260,10.0,13.0,63,-99.99,,,-99.99,,2013-03-23 07:32:00,
2013-03-23 03:41:00,34.0,23.0,29.78,West,260,10.0,13.0,63,-99.99,,,-99.99,,2013-03-23 07:41:00,
2013-03-23 03:52:00,34.0,23.0,29.77,West,270,11.0,14.0,64,-99.99,,,-99.99,,2013-03-23 07:52:00,
2013-03-23 04:02:00,34.0,23.0,29.77,West,270,11.0,14.0,64,-99.99,,,-99.99,,2013-03-23 08:02:00,
2013-03-23 04:12:00,34.0,23.0,29.77,West,270,11.0,13.0,64,-99.99,,,-99.99,,2013-03-23 08:12:00,
2013-03-23 04:21:00,34.0,22.0,29.76,West,270,13.0,15.0,63,-99.99,,,-99.99,,2013-03-23 08:21:00,
2013-03-23 04:31:00,34.0,23.0,29.75,West,270,14.0,18.0,63,-99.99,,,-99.99,,2013-03-23 08:31:00,
2013-03-23 04:41:00,34.0,23.0,29.75,West,270,14.0,18.0,63,-99.99,,,-99.99,,2013-03-23 08:41:00,
2013-03-23 04:51:00,34.0,23.0,29.75,West,270,16.0,18.0,62,-99.99,,,-99.99,,2013-03-23 08:51:00,
2013-03-23 05:01:00,34.0,23.0,29.75,West,270,16.0,18.0,62,-99.99,,,-99.99,,2013-03-23 09:01:00,
2013-03-23 05:11:00,34.0,23.0,29.75,West,270,16.0,21.0,62,-99.99,,,-99.99,,2013-03-23 09:11:00,
2013-03-23 05:21:00,34.0,23.0,29.74,West,270,17.0,22.0,62,-99.99,,,-99.99,,2013-03-23 09:21:00,
2013-03-23 05:32:00,35.0,23.0,29.74,West,260,20.0,23.0,63,-99.99,,,-99.99,,2013-03-23 09:32:00,
2013-03-23 05:42:00,35.0,23.0,29.74,West,260,20.0,23.0,63,-99.99,,,-99.99,,2013-03-23 09:42:00,
2013-03-23 05:52:00,34.0,23.0,29.75,West,260,18.0,22.0,62,-99.99,,,-99.99,,2013-03-23 09:52:00,
2013-03-23 06:02:00,34.0,23.0,29.75,West,260,18.0,22.0,62,-99.99,,,-99.99,,2013-03-23 10:02:00,
2013-03-23 06:12:00,34.0,23.0,29.74,West,270,21.0,23.0,62,-99.99,,,-99.99,,2013-03-23 10:12:00,
2013-03-23 06:22:00,34.0,22.0,29.73,West,270,23.0,26.0,61,-99.99,,,-99.99,,2013-03-23 10:22:00,
2013-03-23 06:33:00,34.0,23.0,29.74,West,270,23.0,29.0,63,-99.99,,,-99.99,,2013-03-23 10:33:00,
2013-03-23 06:41:00,34.0,23.0,29.74,West,270,23.0,29.0,63,-99.99,,,-99.99,,2013-03-23 10:41:00,
2013-03-23 06:51:00,34.0,22.0,29.73,West,270,25.0,29.0,62,-99.99,,,-99.99,,2013-03-23 10:51:00,
2013-03-23 07:02:00,34.0,22.0,29.73,West,270,25.0,29.0,62,-99.99,,,-99.99,,2013-03-23 11:02:00,
2013-03-23 07:11:00,34.0,22.0,29.74,West,270,24.0,28.0,62,-99.99,,,-99.99,,2013-03-23 11:11:00,
2013-03-23 07:21:00,34.0,22.0,29.75,West,270,23.0,26.0,62,-99.99,,,-99.99,,2013-03-23 11:21:00,
2013-03-23 07:32:00,34.0,22.0,29.75,West,270,22.0,28.0,62,-99.99,,,-99.99,,2013-03-23 11:32:00,
2013-03-23 07:41:00,34.0,22.0,29.75,West,270,22.0,28.0,62,-99.99,,,-99.99,,2013-03-23 11:41:00,
2013-03-23 07:51:00,34.0,22.0,29.75,West,270,22.0,25.0,60,-99.99,,,-99.99,,2013-03-23 11:51:00,
2013-03-23 08:01:00,34.0,22.0,29.75,West,270,22.0,25.0,60,-99.99,,,-99.99,,2013-03-23 12:01:00,
2013-03-23 08:11:00,34.0,22.0,29.75,West,270,21.0,25.0,60,-99.99,,,-99.99,,2013-03-23 12:11:00,
2013-03-23 08:21:00,35.0,22.0,29.75,West,270,24.0,28.0,61,-99.99,,,-99.99,,2013-03-23 12:21:00,
2013-03-23 08:32:00,35.0,22.0,29.75,West,270,23.0,28.0,60,-99.99,,,-99.99,,2013-03-23 12:32:00,
2013-03-23 08:42:00,35.0,22.0,29.75,West,270,23.0,28.0,60,-99.99,,,-99.99,,2013-03-23 12:42:00,
2013-03-23 08:52:00,35.0,22.0,29.75,West,260,22.0,28.0,58,-99.99,,,-99.99,,2013-03-23 12:52:00,
2013-03-23 09:01:00,35.0,22.0,29.75,West,260,22.0,28.0,58,-99.99,,,-99.99,,2013-03-23 13:01:00,
2013-03-23 09:11:00,35.0,22.0,29.75,West,270,21.0,24.0,60,-99.99,,,-99.99,,2013-03-23 13:11:00,
2013-03-23 09:21:00,35.0,22.0,29.75,West,280,20.0,25.0,57,-99.99,,,-99.99,,2013-03-23 13:21:00,
2013-03-23 09:31:00,36.0,21.0,29.75,West,280,18.0,21.0,55,-99.99,,,-99.99,,2013-03-23 13:31:00,
2013-03-23 09:41:00,36.0,21.0,29.75,West,280,18.0,21.0,55,-99.99,,,-99.99,,2013-03-23 13:41:00,
2013-03-23 09:52:00,36.0,21.0,29.75,West,270,16.0,21.0,55,-99.99,,,-99.99,,2013-03-23 13:52:00,
2013-03-23 10:02:00,36.0,21.0,29.75,West,270,16.0,21.0,55,-99.99,,,-99.99,,2013-03-23 14:02:00,
2013-03-23 10:11:00,37.0,22.0,29.74,West,270,16.0,21.0,55,-99.99,,,-99.99,,2013-03-23 14:11:00,
2013-03-23 10:21:00,38.0,20.0,29.73,WNW,290,20.0,31.0,49,-99.99,,,-99.99,,2013-03-23 14:21:00,
2013-03-23 10:31:00,38.0,19.0,29.74,NW,310,22.0,30.0,45,-99.99,,,-99.99,,2013-03-23 14:31:00,
2013-03-23 10:41:00,38.0,19.0,29.74,NW,310,22.0,30.0,45,-99.99,,,-99.99,,2013-03-23 14:41:00,
2013-03-23 10:52:00,38.0,18.0,29.72,WNW,290,28.0,37.0,44,-99.99,,,-99.99,,2013-03-23 14:52:00,
2013-03-23 11:02:00,38.0,18.0,29.72,WNW,290,28.0,37.0,44,-99.99,,,-99.99,,2013-03-23 15:02:00,
2013-03-23 11:21:00,39.0,19.0,29.72,NW,310,25.0,32.0,43,-99.99,,,-99.99,,2013-03-23 15:21:00,
2013-03-23 11:32:00,39.0,19.0,29.72,WNW,290,24.0,36.0,42,-99.99,,,-99.99,,2013-03-23 15:32:00,
2013-03-23 11:42:00,39.0,19.0,29.72,WNW,290,24.0,36.0,42,-99.99,,,-99.99,,2013-03-23 15:42:00,
2013-03-23 11:52:00,40.0,17.0,29.71,WNW,290,26.0,31.0,40,-99.99,,,-99.99,,2013-03-23 15:52:00,
2013-03-23 12:11:00,40.0,18.0,29.70,West,280,29.0,36.0,40,-99.99,,,-99.99,,2013-03-23 16:11:00,
2013-03-23 12:22:00,40.0,18.0,29.72,WNW,300,17.0,24.0,41,-99.99,,,-99.99,,2013-03-23 16:22:00,
2013-03-23 12:32:00,40.0,18.0,29.71,NW,310,26.0,36.0,40,-99.99,,,-99.99,,2013-03-23 16:32:00,
2013-03-23 12:42:00,40.0,18.0,29.71,NW,310,26.0,36.0,40,-99.99,,,-99.99,,2013-03-23 16:42:00,
2013-03-23 12:52:00,40.0,19.0,29.72,NW,310,25.0,31.0,41,-99.99,,,-99.99,,2013-03-23 16:52:00,
2013-03-23 13:01:00,40.0,19.0,29.72,NW,310,25.0,31.0,41,-99.99,,,-99.99,,2013-03-23 17:01:00,
2013-03-23 13:11:00,40.0,18.0,29.72,WNW,290,20.0,30.0,40,-99.99,,,-99.99,,2013-03-23 17:11:00,
2013-03-23 13:21:00,41.0,18.0,29.71,WNW,300,25.0,39.0,38,-99.99,,,-99.99,,2013-03-23 17:21:00,
2013-03-23 13:31:00,41.0,18.0,29.70,WNW,290,26.0,39.0,37,-99.99,,,-99.99,,2013-03-23 17:31:00,
2013-03-23 13:42:00,41.0,18.0,29.70,WNW,290,26.0,39.0,37,-99.99,,,-99.99,,2013-03-23 17:42:00,
2013-03-23 13:51:00,42.0,16.0,29.69,WNW,290,28.0,37.0,34,-99.99,,,-99.99,,2013-03-23 17:51:00,
2013-03-23 14:11:00,42.0,17.0,29.70,NW,310,25.0,30.0,36,-99.99,,,-99.99,,2013-03-23 18:11:00,
2013-03-23 14:21:00,43.0,15.0,29.69,NW,310,29.0,41.0,32,-99.99,,,-99.99,,2013-03-23 18:21:00,
2013-03-23 14:31:00,42.0,15.0,29.68,WNW,300,30.0,45.0,32,-99.99,,,-99.99,,2013-03-23 18:31:00,
2013-03-23 14:52:00,43.0,13.0,29.67,WNW,290,32.0,43.0,29,-99.99,,,-99.99,,2013-03-23 18:52:00,
2013-03-23 15:02:00,43.0,13.0,29.67,WNW,290,32.0,43.0,29,-99.99,,,-99.99,,2013-03-23 19:02:00,
2013-03-23 15:11:00,43.0,12.0,29.67,WNW,300,33.0,48.0,27,-99.99,,,-99.99,,2013-03-23 19:11:00,
2013-03-23 15:21:00,44.0,13.0,29.67,WNW,300,26.0,39.0,28,-99.99,,,-99.99,,2013-03-23 19:21:00,
2013-03-23 15:52:00,43.0,12.0,29.66,WNW,300,32.0,39.0,27,-99.99,,,-99.99,,2013-03-23 19:52:00,
2013-03-23 16:11:00,43.0,13.0,29.66,WNW,300,29.0,38.0,28,-99.99,,,-99.99,,2013-03-23 20:11:00,
2013-03-23 16:31:00,44.0,13.0,29.67,NW,310,28.0,37.0,28,-99.99,,,-99.99,,2013-03-23 20:31:00,
2013-03-23 16:42:00,44.0,13.0,29.67,NW,310,28.0,37.0,28,-99.99,,,-99.99,,2013-03-23 20:42:00,
2013-03-23 16:52:00,44.0,14.0,29.67,NW,310,26.0,37.0,28,-99.99,,,-99.99,,2013-03-23 20:52:00,
2013-03-23 17:11:00,44.0,13.0,29.67,WNW,300,24.0,31.0,28,-99.99,,,-99.99,,2013-03-23 21:11:00,
2013-03-23 17:32:00,44.0,13.0,29.67,WNW,300,30.0,39.0,28,-99.99,,,-99.99,,2013-03-23 21:32:00,
2013-03-23 17:42:00,44.0,13.0,29.67,WNW,300,30.0,39.0,28,-99.99,,,-99.99,,2013-03-23 21:42:00,
2013-03-23 17:53:00,44.0,13.0,29.68,NW,320,28.0,34.0,28,-99.99,,,-99.99,,2013-03-23 21:53:00,
2013-03-23 18:02:00,44.0,13.0,29.68,NW,320,28.0,34.0,28,-99.99,,,-99.99,,2013-03-23 22:02:00,
2013-03-23 18:12:00,44.0,15.0,29.69,NW,320,26.0,34.0,30,-99.99,,,-99.99,,2013-03-23 22:12:00,
2013-03-23 18:22:00,43.0,14.0,29.69,NW,320,30.0,38.0,30,-99.99,,,-99.99,,2013-03-23 22:22:00,
2013-03-23 18:32:00,43.0,14.0,29.70,NW,310,29.0,37.0,30,-99.99,,,-99.99,,2013-03-23 22:32:00,
2013-03-23 18:42:00,43.0,14.0,29.70,NW,310,29.0,37.0,30,-99.99,,,-99.99,,2013-03-23 22:42:00,
2013-03-23 18:52:00,43.0,16.0,29.73,NW,310,17.0,22.0,32,-99.99,,,-99.99,,2013-03-23 22:52:00,
2013-03-23 19:01:00,43.0,16.0,29.73,NW,310,17.0,22.0,32,-99.99,,,-99.99,,2013-03-23 23:01:00,
2013-03-23 19:12:00,43.0,15.0,29.73,NW,310,17.0,23.0,32,-99.99,,,-99.99,,2013-03-23 23:12:00,
2013-03-23 19:21:00,42.0,15.0,29.73,NW,310,20.0,26.0,32,-99.99,,,-99.99,,2013-03-23 23:21:00,
2013-03-23 19:41:00,42.0,15.0,29.74,NW,310,18.0,25.0,34,-99.99,,,-99.99,,2013-03-23 23:41:00,
2013-03-23 19:51:00,41.0,16.0,29.74,NW,320,23.0,30.0,34,-99.99,,,-99.99,,2013-03-23 23:51:00,
2013-03-23 20:01:00,41.0,16.0,29.74,NW,320,23.0,30.0,34,-99.99,,,-99.99,,2013-03-24 00:01:00,
2013-03-23 20:21:00,41.0,16.0,29.75,NW,310,17.0,21.0,35,-99.99,,,-99.99,,2013-03-24 00:21:00,
2013-03-23 20:32:00,41.0,16.0,29.75,NW,310,17.0,21.0,35,-99.99,,,-99.99,,2013-03-24 00:32:00,
2013-03-23 20:41:00,41.0,16.0,29.75,NW,310,17.0,21.0,35,-99.99,,,-99.99,,2013-03-24 00:41:00,